sensor_id;sensor_type;location;lat;lon;timestamp;temperature;humidity
18450;DHT22;9354;50.194;7.690;2022-10-16T00:00:43;13.80;99.90
18450;DHT22;9354;50.194;7.690;2022-10-16T00:03:11;13.80;99.90
18450;DHT22;9354;50.194;7.690;2022-10-16T00:05:40;13.80;99.90
18450;DHT22;9354;50.194;7.690;2022-10-16T00:08:09;13.80;99.90
18450;DHT22;9354;50.194;7.690;2022-10-16T00:10:36;13.80;99.90
18450;DHT22;9354;50.194;7.690;2022-10-16T00:13:06;13.80;99.90
18450;DHT22;9354;50.194;7.690;2022-10-16T00:15:33;13.80;99.90
18450;DHT22;9354;50.194;7.690;2022-10-16T00:18:02;13.80;99.90
18450;DHT22;9354;50.194;7.690;2022-10-16T00:20:30;13.80;99.90
18450;DHT22;9354;50.194;7.690;2022-10-16T00:22:59;13.80;99.90
18450;DHT22;9354;50.194;7.690;2022-10-16T00:25:26;13.80;99.90
18450;DHT22;9354;50.194;7.690;2022-10-16T00:27:54;13.80;99.90
18450;DHT22;9354;50.194;7.690;2022-10-16T00:30:22;13.80;99.90
18450;DHT22;9354;50.194;7.690;2022-10-16T00:32:50;13.80;99.90
18450;DHT22;9354;50.194;7.690;2022-10-16T00:35:17;13.80;99.90
18450;DHT22;9354;50.194;7.690;2022-10-16T00:37:44;13.80;99.90
18450;DHT22;9354;50.194;7.690;2022-10-16T00:40:12;13.80;99.90
18450;DHT22;9354;50.194;7.690;2022-10-16T00:42:39;13.80;99.90
18450;DHT22;9354;50.194;7.690;2022-10-16T00:45:09;13.70;99.90
18450;DHT22;9354;50.194;7.690;2022-10-16T00:47:40;13.70;99.90
18450;DHT22;9354;50.194;7.690;2022-10-16T00:50:13;13.70;99.90
18450;DHT22;9354;50.194;7.690;2022-10-16T00:52:46;13.70;99.90
18450;DHT22;9354;50.194;7.690;2022-10-16T00:55:17;13.70;99.90
18450;DHT22;9354;50.194;7.690;2022-10-16T00:57:45;13.70;99.90
18450;DHT22;9354;50.194;7.690;2022-10-16T01:00:16;13.70;99.90
18450;DHT22;9354;50.194;7.690;2022-10-16T01:02:51;13.70;99.90
18450;DHT22;9354;50.194;7.690;2022-10-16T01:05:18;13.70;99.90
18450;DHT22;9354;50.194;7.690;2022-10-16T01:07:54;13.80;99.90
18450;DHT22;9354;50.194;7.690;2022-10-16T01:10:27;13.80;99.90
18450;DHT22;9354;50.194;7.690;2022-10-16T01:13:01;13.80;99.90
18450;DHT22;9354;50.194;7.690;2022-10-16T01:15:34;13.80;99.90
18450;DHT22;9354;50.194;7.690;2022-10-16T01:18:10;13.80;99.90
18450;DHT22;9354;50.194;7.690;2022-10-16T01:20:44;13.80;99.90
18450;DHT22;9354;50.194;7.690;2022-10-16T01:23:26;13.80;99.90
18450;DHT22;9354;50.194;7.690;2022-10-16T01:26:13;13.90;99.90
18450;DHT22;9354;50.194;7.690;2022-10-16T01:28:48;13.90;99.90
18450;DHT22;9354;50.194;7.690;2022-10-16T01:31:18;13.90;99.90
18450;DHT22;9354;50.194;7.690;2022-10-16T01:33:50;14.00;99.90
18450;DHT22;9354;50.194;7.690;2022-10-16T01:36:22;14.00;99.90
18450;DHT22;9354;50.194;7.690;2022-10-16T01:38:53;14.00;99.90
18450;DHT22;9354;50.194;7.690;2022-10-16T01:41:24;14.00;99.90
18450;DHT22;9354;50.194;7.690;2022-10-16T01:43:59;14.00;99.90
18450;DHT22;9354;50.194;7.690;2022-10-16T01:46:30;14.00;99.90
18450;DHT22;9354;50.194;7.690;2022-10-16T01:49:00;14.00;99.90
18450;DHT22;9354;50.194;7.690;2022-10-16T01:51:29;14.00;99.90
18450;DHT22;9354;50.194;7.690;2022-10-16T01:53:58;14.00;99.90
18450;DHT22;9354;50.194;7.690;2022-10-16T01:56:27;14.00;99.90
18450;DHT22;9354;50.194;7.690;2022-10-16T01:59:03;14.00;99.90
18450;DHT22;9354;50.194;7.690;2022-10-16T02:01:34;13.90;99.90
18450;DHT22;9354;50.194;7.690;2022-10-16T02:04:09;13.90;99.90
18450;DHT22;9354;50.194;7.690;2022-10-16T02:06:38;13.90;99.90
18450;DHT22;9354;50.194;7.690;2022-10-16T02:09:06;13.80;99.90
18450;DHT22;9354;50.194;7.690;2022-10-16T02:11:33;13.80;99.90
18450;DHT22;9354;50.194;7.690;2022-10-16T02:14:05;13.80;99.90
18450;DHT22;9354;50.194;7.690;2022-10-16T02:16:33;13.80;99.90
18450;DHT22;9354;50.194;7.690;2022-10-16T02:19:01;13.70;99.90
18450;DHT22;9354;50.194;7.690;2022-10-16T02:21:35;13.70;99.90
18450;DHT22;9354;50.194;7.690;2022-10-16T02:24:09;13.70;99.90
18450;DHT22;9354;50.194;7.690;2022-10-16T02:26:43;13.70;99.90
18450;DHT22;9354;50.194;7.690;2022-10-16T02:29:17;13.70;99.90
18450;DHT22;9354;50.194;7.690;2022-10-16T02:31:49;13.60;99.90
18450;DHT22;9354;50.194;7.690;2022-10-16T02:34:18;13.60;99.90
18450;DHT22;9354;50.194;7.690;2022-10-16T02:36:49;13.60;99.90
18450;DHT22;9354;50.194;7.690;2022-10-16T02:39:18;13.50;99.90
18450;DHT22;9354;50.194;7.690;2022-10-16T02:41:47;13.50;99.90
18450;DHT22;9354;50.194;7.690;2022-10-16T02:44:16;13.50;99.90
18450;DHT22;9354;50.194;7.690;2022-10-16T02:46:43;13.50;99.90
18450;DHT22;9354;50.194;7.690;2022-10-16T02:49:11;13.50;99.90
18450;DHT22;9354;50.194;7.690;2022-10-16T02:51:38;13.50;99.90
18450;DHT22;9354;50.194;7.690;2022-10-16T02:54:05;13.50;99.90
18450;DHT22;9354;50.194;7.690;2022-10-16T02:56:33;13.50;99.90
18450;DHT22;9354;50.194;7.690;2022-10-16T02:59:00;13.50;99.90
18450;DHT22;9354;50.194;7.690;2022-10-16T03:01:29;13.60;99.90
18450;DHT22;9354;50.194;7.690;2022-10-16T03:03:56;13.60;99.90
18450;DHT22;9354;50.194;7.690;2022-10-16T03:06:23;13.60;99.90
18450;DHT22;9354;50.194;7.690;2022-10-16T03:08:51;13.60;99.90
18450;DHT22;9354;50.194;7.690;2022-10-16T03:11:18;13.60;99.90
18450;DHT22;9354;50.194;7.690;2022-10-16T03:13:45;13.60;99.90
18450;DHT22;9354;50.194;7.690;2022-10-16T03:16:13;13.60;99.90
18450;DHT22;9354;50.194;7.690;2022-10-16T03:18:41;13.60;99.90
18450;DHT22;9354;50.194;7.690;2022-10-16T03:21:09;13.50;99.90
18450;DHT22;9354;50.194;7.690;2022-10-16T03:23:36;13.50;99.90
18450;DHT22;9354;50.194;7.690;2022-10-16T03:26:03;13.50;99.90
18450;DHT22;9354;50.194;7.690;2022-10-16T03:28:31;13.50;99.90
18450;DHT22;9354;50.194;7.690;2022-10-16T03:30:58;13.50;99.90
18450;DHT22;9354;50.194;7.690;2022-10-16T03:33:25;13.50;99.90
18450;DHT22;9354;50.194;7.690;2022-10-16T03:35:54;13.50;99.90
18450;DHT22;9354;50.194;7.690;2022-10-16T03:38:22;13.50;99.90
18450;DHT22;9354;50.194;7.690;2022-10-16T03:40:49;13.50;99.90
18450;DHT22;9354;50.194;7.690;2022-10-16T03:43:16;13.50;99.90
18450;DHT22;9354;50.194;7.690;2022-10-16T03:45:44;13.50;99.90
18450;DHT22;9354;50.194;7.690;2022-10-16T03:48:11;13.50;99.90
18450;DHT22;9354;50.194;7.690;2022-10-16T03:50:38;13.50;99.90
18450;DHT22;9354;50.194;7.690;2022-10-16T03:53:07;13.50;99.90
18450;DHT22;9354;50.194;7.690;2022-10-16T03:55:35;13.50;99.90
18450;DHT22;9354;50.194;7.690;2022-10-16T03:58:02;13.50;99.90
18450;DHT22;9354;50.194;7.690;2022-10-16T04:00:29;13.50;99.90
18450;DHT22;9354;50.194;7.690;2022-10-16T04:02:57;13.50;99.90
18450;DHT22;9354;50.194;7.690;2022-10-16T04:05:24;13.50;99.90
18450;DHT22;9354;50.194;7.690;2022-10-16T04:07:51;13.50;99.90
18450;DHT22;9354;50.194;7.690;2022-10-16T04:10:20;13.50;99.90
18450;DHT22;9354;50.194;7.690;2022-10-16T04:12:47;13.50;99.90
18450;DHT22;9354;50.194;7.690;2022-10-16T04:15:15;13.50;99.90
18450;DHT22;9354;50.194;7.690;2022-10-16T04:17:42;13.50;99.90
18450;DHT22;9354;50.194;7.690;2022-10-16T04:20:10;13.50;99.90
18450;DHT22;9354;50.194;7.690;2022-10-16T04:22:37;13.50;99.90
18450;DHT22;9354;50.194;7.690;2022-10-16T04:25:05;13.50;99.90
18450;DHT22;9354;50.194;7.690;2022-10-16T04:27:34;13.40;99.90
18450;DHT22;9354;50.194;7.690;2022-10-16T04:30:01;13.50;99.90
18450;DHT22;9354;50.194;7.690;2022-10-16T04:32:28;13.50;99.90
18450;DHT22;9354;50.194;7.690;2022-10-16T04:34:56;13.50;99.90
18450;DHT22;9354;50.194;7.690;2022-10-16T04:37:23;13.50;99.90
18450;DHT22;9354;50.194;7.690;2022-10-16T04:39:52;13.60;99.90
18450;DHT22;9354;50.194;7.690;2022-10-16T04:42:19;13.60;99.90
18450;DHT22;9354;50.194;7.690;2022-10-16T04:44:48;13.60;99.90
18450;DHT22;9354;50.194;7.690;2022-10-16T04:47:16;13.60;99.90
18450;DHT22;9354;50.194;7.690;2022-10-16T04:49:43;13.70;99.90
18450;DHT22;9354;50.194;7.690;2022-10-16T04:52:10;13.70;99.90
18450;DHT22;9354;50.194;7.690;2022-10-16T04:54:37;13.70;99.90
18450;DHT22;9354;50.194;7.690;2022-10-16T04:57:05;13.70;99.90
18450;DHT22;9354;50.194;7.690;2022-10-16T04:59:32;13.70;99.90
18450;DHT22;9354;50.194;7.690;2022-10-16T05:02:01;13.60;99.90
18450;DHT22;9354;50.194;7.690;2022-10-16T05:04:28;13.60;99.90
18450;DHT22;9354;50.194;7.690;2022-10-16T05:06:55;13.60;99.90
18450;DHT22;9354;50.194;7.690;2022-10-16T05:09:23;13.60;99.90
18450;DHT22;9354;50.194;7.690;2022-10-16T05:11:50;13.60;99.90
18450;DHT22;9354;50.194;7.690;2022-10-16T05:14:18;13.50;99.90
18450;DHT22;9354;50.194;7.690;2022-10-16T05:16:45;13.50;99.90
18450;DHT22;9354;50.194;7.690;2022-10-16T05:19:15;13.50;99.90
18450;DHT22;9354;50.194;7.690;2022-10-16T05:21:42;13.50;99.90
18450;DHT22;9354;50.194;7.690;2022-10-16T05:24:10;13.50;99.90
18450;DHT22;9354;50.194;7.690;2022-10-16T05:26:37;13.50;99.90
18450;DHT22;9354;50.194;7.690;2022-10-16T05:29:04;13.60;99.90
18450;DHT22;9354;50.194;7.690;2022-10-16T05:31:33;13.60;99.90
18450;DHT22;9354;50.194;7.690;2022-10-16T05:34:00;13.60;99.90
18450;DHT22;9354;50.194;7.690;2022-10-16T05:36:29;13.60;99.90
18450;DHT22;9354;50.194;7.690;2022-10-16T05:38:57;13.70;99.90
18450;DHT22;9354;50.194;7.690;2022-10-16T05:41:24;13.70;99.90
18450;DHT22;9354;50.194;7.690;2022-10-16T05:43:52;13.70;99.90
18450;DHT22;9354;50.194;7.690;2022-10-16T05:46:19;13.70;99.90
18450;DHT22;9354;50.194;7.690;2022-10-16T05:48:47;13.70;99.90
18450;DHT22;9354;50.194;7.690;2022-10-16T05:51:14;13.70;99.90
18450;DHT22;9354;50.194;7.690;2022-10-16T05:53:43;13.60;99.90
18450;DHT22;9354;50.194;7.690;2022-10-16T05:56:11;13.60;99.90
18450;DHT22;9354;50.194;7.690;2022-10-16T05:58:39;13.60;99.90
18450;DHT22;9354;50.194;7.690;2022-10-16T06:01:10;13.60;99.90
18450;DHT22;9354;50.194;7.690;2022-10-16T06:03:37;13.60;99.90
18450;DHT22;9354;50.194;7.690;2022-10-16T06:06:09;13.60;99.90
18450;DHT22;9354;50.194;7.690;2022-10-16T06:08:36;13.60;99.90
18450;DHT22;9354;50.194;7.690;2022-10-16T06:11:07;13.60;99.90
18450;DHT22;9354;50.194;7.690;2022-10-16T06:13:35;13.60;99.90
18450;DHT22;9354;50.194;7.690;2022-10-16T06:16:03;13.60;99.90
18450;DHT22;9354;50.194;7.690;2022-10-16T06:18:31;13.60;99.90
18450;DHT22;9354;50.194;7.690;2022-10-16T06:20:58;13.60;99.90
18450;DHT22;9354;50.194;7.690;2022-10-16T06:23:28;13.60;99.90
18450;DHT22;9354;50.194;7.690;2022-10-16T06:26:06;13.70;99.90
18450;DHT22;9354;50.194;7.690;2022-10-16T06:28:33;13.70;99.90
18450;DHT22;9354;50.194;7.690;2022-10-16T06:31:00;13.70;99.90
18450;DHT22;9354;50.194;7.690;2022-10-16T06:33:28;13.80;99.90
18450;DHT22;9354;50.194;7.690;2022-10-16T06:36:00;13.80;99.90
18450;DHT22;9354;50.194;7.690;2022-10-16T06:38:28;13.80;99.90
18450;DHT22;9354;50.194;7.690;2022-10-16T06:40:55;13.90;99.90
18450;DHT22;9354;50.194;7.690;2022-10-16T06:43:24;13.90;99.90
18450;DHT22;9354;50.194;7.690;2022-10-16T06:45:52;13.90;99.90
18450;DHT22;9354;50.194;7.690;2022-10-16T06:48:20;13.90;99.90
18450;DHT22;9354;50.194;7.690;2022-10-16T06:50:57;14.00;99.90
18450;DHT22;9354;50.194;7.690;2022-10-16T06:53:26;14.00;99.90
18450;DHT22;9354;50.194;7.690;2022-10-16T06:55:53;14.00;99.90
18450;DHT22;9354;50.194;7.690;2022-10-16T06:58:21;14.00;99.90
18450;DHT22;9354;50.194;7.690;2022-10-16T07:00:55;14.00;99.90
18450;DHT22;9354;50.194;7.690;2022-10-16T07:03:22;14.00;99.90
18450;DHT22;9354;50.194;7.690;2022-10-16T07:05:50;14.00;99.90
18450;DHT22;9354;50.194;7.690;2022-10-16T07:08:17;14.00;99.90
18450;DHT22;9354;50.194;7.690;2022-10-16T07:10:44;14.00;99.90
18450;DHT22;9354;50.194;7.690;2022-10-16T07:13:12;14.00;99.90
18450;DHT22;9354;50.194;7.690;2022-10-16T07:15:40;14.10;99.90
18450;DHT22;9354;50.194;7.690;2022-10-16T07:18:09;14.10;99.90
18450;DHT22;9354;50.194;7.690;2022-10-16T07:20:36;14.10;99.90
18450;DHT22;9354;50.194;7.690;2022-10-16T07:23:04;14.10;99.90
18450;DHT22;9354;50.194;7.690;2022-10-16T07:25:31;14.10;99.90
18450;DHT22;9354;50.194;7.690;2022-10-16T07:27:59;14.10;99.90
18450;DHT22;9354;50.194;7.690;2022-10-16T07:30:26;14.10;99.90
18450;DHT22;9354;50.194;7.690;2022-10-16T07:32:53;14.10;99.90
18450;DHT22;9354;50.194;7.690;2022-10-16T07:35:22;14.20;99.90
18450;DHT22;9354;50.194;7.690;2022-10-16T07:37:49;14.20;99.90
18450;DHT22;9354;50.194;7.690;2022-10-16T07:40:17;14.20;99.90
18450;DHT22;9354;50.194;7.690;2022-10-16T07:42:44;14.20;99.90
18450;DHT22;9354;50.194;7.690;2022-10-16T07:45:11;14.20;99.90
18450;DHT22;9354;50.194;7.690;2022-10-16T07:47:38;14.20;99.90
18450;DHT22;9354;50.194;7.690;2022-10-16T07:50:06;14.20;99.90
18450;DHT22;9354;50.194;7.690;2022-10-16T07:52:35;14.20;99.90
18450;DHT22;9354;50.194;7.690;2022-10-16T07:55:03;14.20;99.90
18450;DHT22;9354;50.194;7.690;2022-10-16T07:57:30;14.20;99.90
18450;DHT22;9354;50.194;7.690;2022-10-16T07:59:58;14.20;99.90
18450;DHT22;9354;50.194;7.690;2022-10-16T08:02:25;14.20;99.90
18450;DHT22;9354;50.194;7.690;2022-10-16T08:04:52;14.20;99.90
18450;DHT22;9354;50.194;7.690;2022-10-16T08:07:20;14.20;99.90
18450;DHT22;9354;50.194;7.690;2022-10-16T08:09:50;14.30;99.90
18450;DHT22;9354;50.194;7.690;2022-10-16T08:12:18;14.30;99.90
18450;DHT22;9354;50.194;7.690;2022-10-16T08:14:45;14.40;99.90
18450;DHT22;9354;50.194;7.690;2022-10-16T08:17:17;14.40;99.90
18450;DHT22;9354;50.194;7.690;2022-10-16T08:19:45;14.50;99.90
18450;DHT22;9354;50.194;7.690;2022-10-16T08:22:13;14.50;99.90
18450;DHT22;9354;50.194;7.690;2022-10-16T08:24:40;14.60;99.90
18450;DHT22;9354;50.194;7.690;2022-10-16T08:27:09;14.60;99.90
18450;DHT22;9354;50.194;7.690;2022-10-16T08:29:36;14.60;99.90
18450;DHT22;9354;50.194;7.690;2022-10-16T08:32:04;14.70;99.90
18450;DHT22;9354;50.194;7.690;2022-10-16T08:34:32;14.70;99.90
18450;DHT22;9354;50.194;7.690;2022-10-16T08:36:59;14.70;99.90
18450;DHT22;9354;50.194;7.690;2022-10-16T08:39:27;14.70;99.90
18450;DHT22;9354;50.194;7.690;2022-10-16T08:42:06;14.70;99.90
18450;DHT22;9354;50.194;7.690;2022-10-16T08:47:47;14.70;99.90
18450;DHT22;9354;50.194;7.690;2022-10-16T08:50:21;14.70;99.90
18450;DHT22;9354;50.194;7.690;2022-10-16T08:52:50;14.70;99.90
18450;DHT22;9354;50.194;7.690;2022-10-16T08:55:29;14.70;99.90
18450;DHT22;9354;50.194;7.690;2022-10-16T08:57:58;14.70;99.90
18450;DHT22;9354;50.194;7.690;2022-10-16T09:00:28;14.70;99.90
18450;DHT22;9354;50.194;7.690;2022-10-16T09:03:02;14.70;99.90
18450;DHT22;9354;50.194;7.690;2022-10-16T09:05:50;14.70;99.90
18450;DHT22;9354;50.194;7.690;2022-10-16T09:08:27;14.70;99.90
18450;DHT22;9354;50.194;7.690;2022-10-16T09:10:59;14.70;99.90
18450;DHT22;9354;50.194;7.690;2022-10-16T09:13:31;14.70;99.90
18450;DHT22;9354;50.194;7.690;2022-10-16T09:16:14;14.70;99.90
18450;DHT22;9354;50.194;7.690;2022-10-16T09:18:48;14.70;99.90
18450;DHT22;9354;50.194;7.690;2022-10-16T09:21:21;14.70;99.90
18450;DHT22;9354;50.194;7.690;2022-10-16T09:23:50;14.70;99.90
18450;DHT22;9354;50.194;7.690;2022-10-16T09:26:18;14.70;99.90
18450;DHT22;9354;50.194;7.690;2022-10-16T09:28:47;14.80;99.90
18450;DHT22;9354;50.194;7.690;2022-10-16T09:31:21;14.80;99.90
18450;DHT22;9354;50.194;7.690;2022-10-16T09:33:53;14.90;99.90
18450;DHT22;9354;50.194;7.690;2022-10-16T09:36:22;15.00;99.90
18450;DHT22;9354;50.194;7.690;2022-10-16T09:39:02;15.10;99.90
18450;DHT22;9354;50.194;7.690;2022-10-16T09:41:30;15.10;99.90
18450;DHT22;9354;50.194;7.690;2022-10-16T09:44:02;15.20;99.90
18450;DHT22;9354;50.194;7.690;2022-10-16T09:46:33;15.30;99.90
18450;DHT22;9354;50.194;7.690;2022-10-16T09:49:03;15.30;99.90
18450;DHT22;9354;50.194;7.690;2022-10-16T09:51:32;15.40;99.90
18450;DHT22;9354;50.194;7.690;2022-10-16T09:54:02;15.50;99.90
18450;DHT22;9354;50.194;7.690;2022-10-16T09:56:38;15.60;99.90
18450;DHT22;9354;50.194;7.690;2022-10-16T09:59:11;15.60;99.90
18450;DHT22;9354;50.194;7.690;2022-10-16T10:01:41;15.70;99.90
18450;DHT22;9354;50.194;7.690;2022-10-16T10:04:10;15.80;99.90
18450;DHT22;9354;50.194;7.690;2022-10-16T10:06:41;15.90;99.90
18450;DHT22;9354;50.194;7.690;2022-10-16T10:09:18;16.10;99.90
18450;DHT22;9354;50.194;7.690;2022-10-16T10:11:50;16.20;99.90
18450;DHT22;9354;50.194;7.690;2022-10-16T10:14:27;16.40;99.90
18450;DHT22;9354;50.194;7.690;2022-10-16T10:17:11;16.50;99.90
18450;DHT22;9354;50.194;7.690;2022-10-16T10:19:40;16.60;99.90
18450;DHT22;9354;50.194;7.690;2022-10-16T10:22:17;16.70;99.90
18450;DHT22;9354;50.194;7.690;2022-10-16T10:24:54;16.80;99.90
18450;DHT22;9354;50.194;7.690;2022-10-16T10:27:27;16.90;99.90
18450;DHT22;9354;50.194;7.690;2022-10-16T10:30:02;16.90;99.90
18450;DHT22;9354;50.194;7.690;2022-10-16T10:32:43;17.00;99.90
18450;DHT22;9354;50.194;7.690;2022-10-16T10:35:17;17.10;99.90
18450;DHT22;9354;50.194;7.690;2022-10-16T10:38:06;17.20;99.90
18450;DHT22;9354;50.194;7.690;2022-10-16T10:40:45;17.20;99.90
18450;DHT22;9354;50.194;7.690;2022-10-16T10:43:30;17.20;99.90
18450;DHT22;9354;50.194;7.690;2022-10-16T10:46:04;17.30;99.90
18450;DHT22;9354;50.194;7.690;2022-10-16T10:48:51;17.30;99.90
18450;DHT22;9354;50.194;7.690;2022-10-16T10:51:26;17.30;99.90
18450;DHT22;9354;50.194;7.690;2022-10-16T10:54:02;17.30;99.90
18450;DHT22;9354;50.194;7.690;2022-10-16T10:56:43;17.40;99.90
18450;DHT22;9354;50.194;7.690;2022-10-16T10:59:36;17.40;99.90
18450;DHT22;9354;50.194;7.690;2022-10-16T11:02:13;17.40;99.90
18450;DHT22;9354;50.194;7.690;2022-10-16T11:07:54;17.60;99.90
18450;DHT22;9354;50.194;7.690;2022-10-16T11:10:24;17.80;99.90
18450;DHT22;9354;50.194;7.690;2022-10-16T11:12:56;17.90;99.90
18450;DHT22;9354;50.194;7.690;2022-10-16T11:15:28;17.80;99.90
18450;DHT22;9354;50.194;7.690;2022-10-16T11:18:02;17.80;99.90
18450;DHT22;9354;50.194;7.690;2022-10-16T11:20:33;17.70;99.90
18450;DHT22;9354;50.194;7.690;2022-10-16T11:23:06;17.60;99.90
18450;DHT22;9354;50.194;7.690;2022-10-16T11:25:39;17.50;99.90
18450;DHT22;9354;50.194;7.690;2022-10-16T11:28:11;17.40;99.90
18450;DHT22;9354;50.194;7.690;2022-10-16T11:30:43;17.30;99.90
18450;DHT22;9354;50.194;7.690;2022-10-16T11:33:24;17.10;99.90
18450;DHT22;9354;50.194;7.690;2022-10-16T11:36:00;17.10;99.90
18450;DHT22;9354;50.194;7.690;2022-10-16T11:38:32;17.00;99.90
18450;DHT22;9354;50.194;7.690;2022-10-16T11:41:15;17.00;99.90
18450;DHT22;9354;50.194;7.690;2022-10-16T11:43:51;17.00;99.90
18450;DHT22;9354;50.194;7.690;2022-10-16T11:46:22;17.00;99.90
18450;DHT22;9354;50.194;7.690;2022-10-16T11:48:55;17.00;99.90
18450;DHT22;9354;50.194;7.690;2022-10-16T11:51:33;17.10;99.90
18450;DHT22;9354;50.194;7.690;2022-10-16T11:54:07;17.10;99.90
18450;DHT22;9354;50.194;7.690;2022-10-16T11:56:38;17.10;99.90
18450;DHT22;9354;50.194;7.690;2022-10-16T11:59:10;17.10;99.90
18450;DHT22;9354;50.194;7.690;2022-10-16T12:01:46;17.10;99.90
18450;DHT22;9354;50.194;7.690;2022-10-16T12:04:21;17.20;99.90
18450;DHT22;9354;50.194;7.690;2022-10-16T12:06:55;17.30;99.90
18450;DHT22;9354;50.194;7.690;2022-10-16T12:09:27;17.30;99.90
18450;DHT22;9354;50.194;7.690;2022-10-16T12:11:55;17.40;99.90
18450;DHT22;9354;50.194;7.690;2022-10-16T12:14:39;17.50;99.90
18450;DHT22;9354;50.194;7.690;2022-10-16T12:17:27;17.50;99.90
18450;DHT22;9354;50.194;7.690;2022-10-16T12:20:18;17.50;99.90
18450;DHT22;9354;50.194;7.690;2022-10-16T12:22:50;17.50;99.90
18450;DHT22;9354;50.194;7.690;2022-10-16T12:25:22;17.60;99.90
18450;DHT22;9354;50.194;7.690;2022-10-16T12:27:55;17.60;99.90
18450;DHT22;9354;50.194;7.690;2022-10-16T12:30:25;17.60;99.90
18450;DHT22;9354;50.194;7.690;2022-10-16T12:32:53;17.50;99.90
18450;DHT22;9354;50.194;7.690;2022-10-16T12:35:23;17.60;99.90
18450;DHT22;9354;50.194;7.690;2022-10-16T12:37:52;17.50;99.90
18450;DHT22;9354;50.194;7.690;2022-10-16T12:40:26;17.50;99.90
18450;DHT22;9354;50.194;7.690;2022-10-16T12:42:55;17.60;99.90
18450;DHT22;9354;50.194;7.690;2022-10-16T12:45:28;17.60;99.90
18450;DHT22;9354;50.194;7.690;2022-10-16T12:47:57;17.60;99.90
18450;DHT22;9354;50.194;7.690;2022-10-16T12:50:33;17.50;99.90
18450;DHT22;9354;50.194;7.690;2022-10-16T12:53:15;17.50;99.90
18450;DHT22;9354;50.194;7.690;2022-10-16T12:55:52;17.50;99.90
18450;DHT22;9354;50.194;7.690;2022-10-16T13:01:31;17.50;99.90
18450;DHT22;9354;50.194;7.690;2022-10-16T13:04:15;17.50;99.90
18450;DHT22;9354;50.194;7.690;2022-10-16T13:06:51;17.50;99.90
18450;DHT22;9354;50.194;7.690;2022-10-16T13:09:33;17.50;99.90
18450;DHT22;9354;50.194;7.690;2022-10-16T13:12:25;17.60;99.90
18450;DHT22;9354;50.194;7.690;2022-10-16T13:15:27;17.60;99.90
18450;DHT22;9354;50.194;7.690;2022-10-16T13:18:05;17.60;99.90
18450;DHT22;9354;50.194;7.690;2022-10-16T13:20:53;17.70;99.90
18450;DHT22;9354;50.194;7.690;2022-10-16T13:23:31;17.70;99.90
18450;DHT22;9354;50.194;7.690;2022-10-16T13:26:09;17.70;99.90
18450;DHT22;9354;50.194;7.690;2022-10-16T13:28:40;17.70;99.90
18450;DHT22;9354;50.194;7.690;2022-10-16T13:31:15;17.80;99.90
18450;DHT22;9354;50.194;7.690;2022-10-16T13:33:46;17.80;99.90
18450;DHT22;9354;50.194;7.690;2022-10-16T13:36:21;17.80;99.90
18450;DHT22;9354;50.194;7.690;2022-10-16T13:38:56;17.80;99.90
18450;DHT22;9354;50.194;7.690;2022-10-16T13:41:26;17.80;99.90
18450;DHT22;9354;50.194;7.690;2022-10-16T13:43:54;17.80;99.90
18450;DHT22;9354;50.194;7.690;2022-10-16T13:46:24;17.80;99.90
18450;DHT22;9354;50.194;7.690;2022-10-16T13:49:02;17.80;99.90
18450;DHT22;9354;50.194;7.690;2022-10-16T13:51:31;17.80;99.90
18450;DHT22;9354;50.194;7.690;2022-10-16T13:53:59;17.70;99.90
18450;DHT22;9354;50.194;7.690;2022-10-16T13:56:29;17.70;99.90
18450;DHT22;9354;50.194;7.690;2022-10-16T13:59:02;17.70;99.90
18450;DHT22;9354;50.194;7.690;2022-10-16T14:01:32;17.70;99.90
18450;DHT22;9354;50.194;7.690;2022-10-16T14:04:02;17.70;99.90
18450;DHT22;9354;50.194;7.690;2022-10-16T14:06:31;17.70;99.90
18450;DHT22;9354;50.194;7.690;2022-10-16T14:09:02;17.70;99.90
18450;DHT22;9354;50.194;7.690;2022-10-16T14:11:33;17.70;99.90
18450;DHT22;9354;50.194;7.690;2022-10-16T14:14:02;17.70;99.90
18450;DHT22;9354;50.194;7.690;2022-10-16T14:16:31;17.70;99.90
18450;DHT22;9354;50.194;7.690;2022-10-16T14:19:00;17.70;99.90
18450;DHT22;9354;50.194;7.690;2022-10-16T14:21:29;17.70;99.90
18450;DHT22;9354;50.194;7.690;2022-10-16T14:23:56;17.70;99.90
18450;DHT22;9354;50.194;7.690;2022-10-16T14:26:26;17.70;99.90
18450;DHT22;9354;50.194;7.690;2022-10-16T14:29:11;17.70;99.90
18450;DHT22;9354;50.194;7.690;2022-10-16T14:31:39;17.70;99.90
18450;DHT22;9354;50.194;7.690;2022-10-16T14:34:25;17.80;99.90
18450;DHT22;9354;50.194;7.690;2022-10-16T14:36:54;17.80;99.90
18450;DHT22;9354;50.194;7.690;2022-10-16T14:39:22;17.90;99.90
18450;DHT22;9354;50.194;7.690;2022-10-16T14:41:51;17.90;99.90
18450;DHT22;9354;50.194;7.690;2022-10-16T14:44:26;17.90;99.90
18450;DHT22;9354;50.194;7.690;2022-10-16T14:46:54;17.90;99.90
18450;DHT22;9354;50.194;7.690;2022-10-16T14:49:22;17.90;99.90
18450;DHT22;9354;50.194;7.690;2022-10-16T14:51:50;17.90;99.90
18450;DHT22;9354;50.194;7.690;2022-10-16T14:54:19;17.90;99.90
18450;DHT22;9354;50.194;7.690;2022-10-16T14:56:48;17.90;99.90
18450;DHT22;9354;50.194;7.690;2022-10-16T14:59:19;17.90;99.90
18450;DHT22;9354;50.194;7.690;2022-10-16T15:01:48;17.90;99.90
18450;DHT22;9354;50.194;7.690;2022-10-16T15:04:15;17.80;99.90
18450;DHT22;9354;50.194;7.690;2022-10-16T15:06:43;17.80;99.90
18450;DHT22;9354;50.194;7.690;2022-10-16T15:09:11;17.80;99.90
18450;DHT22;9354;50.194;7.690;2022-10-16T15:11:38;17.80;99.90
18450;DHT22;9354;50.194;7.690;2022-10-16T15:14:08;17.70;99.90
18450;DHT22;9354;50.194;7.690;2022-10-16T15:16:35;17.70;99.90
18450;DHT22;9354;50.194;7.690;2022-10-16T15:19:04;17.70;99.90
18450;DHT22;9354;50.194;7.690;2022-10-16T15:21:32;17.60;99.90
18450;DHT22;9354;50.194;7.690;2022-10-16T15:24:00;17.60;99.90
18450;DHT22;9354;50.194;7.690;2022-10-16T15:26:29;17.60;99.90
18450;DHT22;9354;50.194;7.690;2022-10-16T15:28:56;17.50;99.90
18450;DHT22;9354;50.194;7.690;2022-10-16T15:31:24;17.50;99.90
18450;DHT22;9354;50.194;7.690;2022-10-16T15:33:53;17.40;99.90
18450;DHT22;9354;50.194;7.690;2022-10-16T15:36:30;17.40;99.90
18450;DHT22;9354;50.194;7.690;2022-10-16T15:38:59;17.30;99.90
18450;DHT22;9354;50.194;7.690;2022-10-16T15:41:27;17.30;99.90
18450;DHT22;9354;50.194;7.690;2022-10-16T15:43:54;17.30;99.90
18450;DHT22;9354;50.194;7.690;2022-10-16T15:46:23;17.30;99.90
18450;DHT22;9354;50.194;7.690;2022-10-16T15:48:51;17.30;99.90
18450;DHT22;9354;50.194;7.690;2022-10-16T15:51:22;17.20;99.90
18450;DHT22;9354;50.194;7.690;2022-10-16T15:53:51;17.20;99.90
18450;DHT22;9354;50.194;7.690;2022-10-16T15:56:19;17.20;99.90
18450;DHT22;9354;50.194;7.690;2022-10-16T15:58:48;17.20;99.90
18450;DHT22;9354;50.194;7.690;2022-10-16T16:01:15;17.20;99.90
18450;DHT22;9354;50.194;7.690;2022-10-16T16:03:42;17.20;99.90
18450;DHT22;9354;50.194;7.690;2022-10-16T16:06:12;17.20;99.90
18450;DHT22;9354;50.194;7.690;2022-10-16T16:08:39;17.20;99.90
18450;DHT22;9354;50.194;7.690;2022-10-16T16:11:11;17.10;99.90
18450;DHT22;9354;50.194;7.690;2022-10-16T16:13:39;17.10;99.90
18450;DHT22;9354;50.194;7.690;2022-10-16T16:16:08;17.10;99.90